createdAt,value
2024-04-09T00:01:09.803Z,4.63
2024-04-09T00:03:39.803Z,6.22
2024-04-09T00:06:16.085Z,8.00
2024-04-09T00:08:46.128Z,2.55
2024-04-09T00:11:23.424Z,2.72
2024-04-09T00:13:52.507Z,3.75
2024-04-09T00:16:26.745Z,3.33
2024-04-09T00:18:57.125Z,5.63
2024-04-09T00:21:24.862Z,4.55
2024-04-09T00:23:51.963Z,5.15
2024-04-09T00:26:18.723Z,1.50
2024-04-09T00:28:45.561Z,6.22
2024-04-09T00:31:12.203Z,3.67
2024-04-09T00:33:39.865Z,3.83
2024-04-09T00:36:06.739Z,3.80
2024-04-09T00:38:34.412Z,1.77
2024-04-09T00:41:01.027Z,3.40
2024-04-09T00:43:29.071Z,3.97
2024-04-09T00:45:56.960Z,2.63
2024-04-09T00:48:24.013Z,5.65
2024-04-09T00:50:52.281Z,3.45
2024-04-09T00:53:19.425Z,2.67
2024-04-09T00:55:46.381Z,4.10
2024-04-09T00:58:13.328Z,5.32
2024-04-09T01:00:41.940Z,3.83
2024-04-09T01:03:11.916Z,5.03
2024-04-09T01:05:38.949Z,4.68
2024-04-09T01:08:05.984Z,4.32
2024-04-09T01:10:32.902Z,3.47
2024-04-09T01:13:00.519Z,4.00
2024-04-09T01:15:27.268Z,5.70
2024-04-09T01:17:54.353Z,3.50
2024-04-09T01:20:21.021Z,7.00
2024-04-09T01:22:47.755Z,5.47
2024-04-09T01:25:14.384Z,5.70
2024-04-09T01:27:42.110Z,6.03
2024-04-09T01:30:09.994Z,4.32
2024-04-09T01:32:39.525Z,5.15
2024-04-09T01:35:09.133Z,5.57
2024-04-09T01:37:36.144Z,6.88
2024-04-09T01:40:03.796Z,3.90
2024-04-09T01:42:30.550Z,3.80
2024-04-09T01:44:57.290Z,5.80
2024-04-09T01:47:24.137Z,7.80
2024-04-09T01:49:50.825Z,2.67
2024-04-09T01:52:17.422Z,8.65
2024-04-09T01:54:47.789Z,5.90
2024-04-09T01:57:14.461Z,4.88
2024-04-09T01:59:41.245Z,4.85
2024-04-09T02:02:08.016Z,4.03
2024-04-09T02:04:35.411Z,5.18
2024-04-09T02:07:02.108Z,9.02
2024-04-09T02:09:29.248Z,8.18
2024-04-09T02:11:56.194Z,8.48
2024-04-09T02:14:23.567Z,4.80
2024-04-09T02:16:50.592Z,5.15
2024-04-09T02:19:17.635Z,10.32
2024-04-09T02:21:44.208Z,6.00
2024-04-09T02:24:11.226Z,8.02
2024-04-09T02:26:38.048Z,5.50
2024-04-09T02:29:04.674Z,5.32
2024-04-09T02:31:31.281Z,4.53
2024-04-09T02:33:58.007Z,2.85
2024-04-09T02:36:24.788Z,6.40
2024-04-09T02:38:51.464Z,2.55
2024-04-09T02:41:18.584Z,1.95
2024-04-09T02:43:45.428Z,5.32
2024-04-09T02:46:12.162Z,5.57
2024-04-09T02:48:38.880Z,2.33
2024-04-09T02:51:06.792Z,7.13
2024-04-09T02:53:36.376Z,1.65
2024-04-09T02:56:07.282Z,2.78
2024-04-09T02:58:35.801Z,2.13
2024-04-09T03:01:07.032Z,1.85
2024-04-09T03:03:34.027Z,4.72
2024-04-09T03:06:11.097Z,3.67
2024-04-09T03:08:37.766Z,4.55
2024-04-09T03:11:17.761Z,3.83
2024-04-09T03:13:45.588Z,4.35
2024-04-09T03:16:15.919Z,3.70
2024-04-09T03:18:43.037Z,3.92
2024-04-09T03:21:10.207Z,3.70
2024-04-09T03:23:38.715Z,7.07
2024-04-09T03:26:07.816Z,2.30
2024-04-09T03:28:34.660Z,5.38
2024-04-09T03:31:01.933Z,3.67
2024-04-09T03:33:29.000Z,4.28
2024-04-09T03:35:59.598Z,3.05
2024-04-09T03:38:27.005Z,3.92
2024-04-09T03:41:00.876Z,3.35
2024-04-09T03:43:27.777Z,4.03
2024-04-09T03:46:11.019Z,4.78
2024-04-09T03:48:38.620Z,4.13
2024-04-09T03:51:05.491Z,3.95
2024-04-09T03:53:32.144Z,3.50
2024-04-09T03:56:04.272Z,5.63
2024-04-09T03:58:32.580Z,5.75
2024-04-09T04:01:00.080Z,5.13
2024-04-09T04:03:27.365Z,6.75
2024-04-09T04:05:56.888Z,8.20
2024-04-09T04:08:23.986Z,7.65
2024-04-09T04:10:54.723Z,9.23
2024-04-09T04:13:23.833Z,4.97
2024-04-09T04:16:11.573Z,6.95
2024-04-09T04:18:40.892Z,5.85
2024-04-09T04:21:15.659Z,5.13
2024-04-09T04:23:42.976Z,5.93
2024-04-09T04:26:10.583Z,6.07
2024-04-09T04:28:38.643Z,5.45
2024-04-09T04:31:12.735Z,2.45
2024-04-09T04:33:40.089Z,2.65
2024-04-09T04:36:07.972Z,3.42
2024-04-09T04:38:34.840Z,5.22
2024-04-09T04:41:01.977Z,1.85
2024-04-09T04:43:28.828Z,1.17
2024-04-09T04:45:58.294Z,1.80
2024-04-09T04:48:25.109Z,4.80
2024-04-09T04:50:53.536Z,3.17
2024-04-09T04:53:20.547Z,7.50
2024-04-09T04:55:47.875Z,1.92
2024-04-09T04:58:14.678Z,1.60
2024-04-09T05:00:41.679Z,3.85
2024-04-09T05:03:08.654Z,6.40
2024-04-09T05:05:35.521Z,6.05
2024-04-09T05:08:02.095Z,2.92
2024-04-09T05:10:28.940Z,4.57
2024-04-09T05:12:56.150Z,6.43
2024-04-09T05:15:23.395Z,4.68
2024-04-09T05:17:50.907Z,5.50
2024-04-09T05:20:17.996Z,3.38
2024-04-09T05:22:46.289Z,7.50
2024-04-09T05:25:13.600Z,4.45
2024-04-09T05:27:40.623Z,8.43
2024-04-09T05:30:08.116Z,4.18
2024-04-09T05:32:39.564Z,7.45
2024-04-09T05:35:10.545Z,7.95
2024-04-09T05:37:37.255Z,4.25
2024-04-09T05:40:10.190Z,9.73
2024-04-09T05:42:40.824Z,7.45
2024-04-09T05:45:09.932Z,5.43
2024-04-09T05:47:36.728Z,6.30
2024-04-09T05:50:04.954Z,5.10
2024-04-09T05:52:33.870Z,6.32
2024-04-09T05:55:00.962Z,6.18
2024-04-09T05:57:27.763Z,5.43
2024-04-09T05:59:55.640Z,6.85
2024-04-09T06:02:22.924Z,12.10
2024-04-09T06:04:49.592Z,5.50
2024-04-09T06:07:16.262Z,5.65
2024-04-09T06:09:43.092Z,4.32
2024-04-09T06:12:10.072Z,5.82
2024-04-09T06:14:37.551Z,5.85
2024-04-09T06:17:04.356Z,4.38
2024-04-09T06:19:31.562Z,4.78
2024-04-09T06:21:58.342Z,7.40
2024-04-09T06:24:24.994Z,4.20
2024-04-09T06:26:51.623Z,6.50
2024-04-09T06:29:18.311Z,3.95
2024-04-09T06:31:45.233Z,4.82
2024-04-09T06:34:12.275Z,7.68
2024-04-09T06:36:39.272Z,7.65
2024-04-09T06:39:06.762Z,11.57
2024-04-09T06:41:33.543Z,6.85
2024-04-09T06:44:00.151Z,6.00
2024-04-09T06:46:26.825Z,9.02
2024-04-09T06:48:53.695Z,11.70
2024-04-09T06:51:20.838Z,7.13
2024-04-09T06:53:47.543Z,5.82
2024-04-09T06:56:14.540Z,6.25
2024-04-09T06:58:42.111Z,8.73
2024-04-09T07:01:08.852Z,7.70
2024-04-09T07:03:35.754Z,7.20
2024-04-09T07:06:02.508Z,8.27
2024-04-09T07:08:29.133Z,6.97
2024-04-09T07:10:57.404Z,7.60
2024-04-09T07:13:28.488Z,8.73
2024-04-09T07:15:56.863Z,10.70
2024-04-09T07:18:23.559Z,7.15
2024-04-09T07:20:51.625Z,14.30
2024-04-09T07:23:18.432Z,7.65
2024-04-09T07:25:45.050Z,9.73
2024-04-09T07:28:11.938Z,5.47
2024-04-09T07:30:38.752Z,6.60
2024-04-09T07:33:05.782Z,7.50
2024-04-09T07:35:32.583Z,8.88
2024-04-09T07:37:59.486Z,7.57
2024-04-09T07:40:26.088Z,5.35
2024-04-09T07:42:52.779Z,6.65
2024-04-09T07:45:19.501Z,7.78
2024-04-09T07:47:50.906Z,7.22
2024-04-09T07:50:17.761Z,5.28
2024-04-09T07:52:45.879Z,6.97
2024-04-09T07:55:12.989Z,4.95
2024-04-09T07:57:44.432Z,6.85
2024-04-09T08:00:18.454Z,7.35
2024-04-09T08:02:45.498Z,3.85
2024-04-09T08:05:12.452Z,9.32
2024-04-09T08:07:40.767Z,5.45
2024-04-09T08:10:12.814Z,4.07
2024-04-09T08:12:47.976Z,12.13
2024-04-09T08:15:14.944Z,8.73
2024-04-09T08:17:43.787Z,9.93
2024-04-09T08:20:12.048Z,7.35
2024-04-09T08:22:38.855Z,4.55
2024-04-09T08:25:06.001Z,4.55
2024-04-09T08:27:38.246Z,5.63
2024-04-09T08:30:08.983Z,9.07
2024-04-09T08:32:35.830Z,15.82
2024-04-09T08:35:03.095Z,7.97
2024-04-09T08:37:29.768Z,5.90
2024-04-09T08:39:57.949Z,8.05
2024-04-09T08:42:29.083Z,7.50
2024-04-09T08:44:56.575Z,4.65
2024-04-09T08:47:25.292Z,3.13
2024-04-09T08:49:52.631Z,9.43
2024-04-09T08:52:20.141Z,5.72
2024-04-09T08:54:47.042Z,4.88
2024-04-09T08:57:13.840Z,4.53
2024-04-09T08:59:40.634Z,8.18
2024-04-09T09:02:16.819Z,9.48
2024-04-09T09:04:44.201Z,4.30
2024-04-09T09:07:17.960Z,5.57
2024-04-09T09:09:45.184Z,5.10
2024-04-09T09:12:12.242Z,7.93
2024-04-09T09:14:39.138Z,7.13
2024-04-09T09:19:37.726Z,4.93
2024-04-09T09:22:09.639Z,3.95
2024-04-09T09:24:36.523Z,7.57
2024-04-09T09:27:03.782Z,7.82
2024-04-09T09:29:30.747Z,7.57
2024-04-09T09:31:58.463Z,4.88
2024-04-09T09:34:41.120Z,6.20
2024-04-09T09:37:11.468Z,9.57
2024-04-09T09:39:38.718Z,5.95
2024-04-09T09:42:05.900Z,7.25
2024-04-09T09:44:36.080Z,7.72
2024-04-09T09:47:04.832Z,3.10
2024-04-09T09:49:31.677Z,5.93
2024-04-09T09:51:58.603Z,4.57
2024-04-09T09:54:25.453Z,6.82
2024-04-09T09:56:58.930Z,7.85
2024-04-09T10:01:52.931Z,5.82
2024-04-09T10:04:20.057Z,8.23
2024-04-09T10:06:56.967Z,2.92
2024-04-09T10:09:43.018Z,7.07
2024-04-09T10:12:32.835Z,7.35
2024-04-09T10:15:25.835Z,5.20
2024-04-09T10:17:56.405Z,1.92
2024-04-09T10:20:24.152Z,4.25
2024-04-09T10:22:52.913Z,4.80
2024-04-09T10:25:20.482Z,5.18
2024-04-09T10:27:47.545Z,6.97
2024-04-09T10:30:18.008Z,3.30
2024-04-09T10:32:58.335Z,7.78
2024-04-09T10:35:25.814Z,9.18
2024-04-09T10:37:56.476Z,5.93
2024-04-09T10:40:23.544Z,5.53
2024-04-09T10:42:50.590Z,4.80
2024-04-09T10:45:17.574Z,7.68
2024-04-09T10:47:44.769Z,4.53
2024-04-09T10:50:11.612Z,5.75
2024-04-09T10:52:43.231Z,5.05
2024-04-09T10:55:11.222Z,6.78
2024-04-09T10:58:05.897Z,5.07
2024-04-09T11:04:19.673Z,8.45
2024-04-09T11:07:02.924Z,3.90
2024-04-09T11:09:44.509Z,4.63
2024-04-09T11:12:11.180Z,8.23
2024-04-09T11:14:41.801Z,3.63
2024-04-09T11:17:16.770Z,6.70
2024-04-09T11:19:43.633Z,9.68
2024-04-09T11:22:12.559Z,9.23
2024-04-09T11:24:39.233Z,3.92
2024-04-09T11:27:06.466Z,4.13
2024-04-09T11:29:33.245Z,6.53
2024-04-09T11:32:03.793Z,13.02
2024-04-09T11:34:31.948Z,8.10
2024-04-09T11:37:02.554Z,3.35
2024-04-09T11:39:29.383Z,4.65
2024-04-09T11:41:56.257Z,3.85
2024-04-09T11:44:23.710Z,6.68
2024-04-09T11:46:50.621Z,5.78
2024-04-09T11:49:17.433Z,6.55
2024-04-09T11:51:44.462Z,13.45
2024-04-09T11:54:11.216Z,7.13
2024-04-09T11:56:40.267Z,4.15
2024-04-09T11:59:10.008Z,5.57
2024-04-09T12:01:36.722Z,5.28
2024-04-09T12:04:03.589Z,8.63
2024-04-09T12:06:30.513Z,6.07
2024-04-09T12:08:57.217Z,3.58
2024-04-09T12:11:24.082Z,4.30
2024-04-09T12:13:50.852Z,3.42
2024-04-09T12:16:17.595Z,4.85
2024-04-09T12:18:44.482Z,12.02
2024-04-09T12:21:12.108Z,6.85
2024-04-09T12:23:38.764Z,4.32
2024-04-09T12:26:05.358Z,3.60
2024-04-09T12:28:31.981Z,1.83
2024-04-09T12:30:59.385Z,3.55
2024-04-09T12:33:26.166Z,3.00
2024-04-09T12:35:53.159Z,3.90
2024-04-09T12:38:20.008Z,4.93
2024-04-09T12:40:46.591Z,8.15
2024-04-09T12:43:13.265Z,3.22
2024-04-09T12:45:40.149Z,4.50
2024-04-09T12:48:07.048Z,4.38
2024-04-09T12:50:34.055Z,4.22
2024-04-09T12:53:01.224Z,11.40
2024-04-09T12:55:27.899Z,8.95
2024-04-09T12:57:55.265Z,7.18
2024-04-09T13:00:40.224Z,3.60
2024-04-09T13:03:09.995Z,3.92
2024-04-09T13:05:37.187Z,1.45
2024-04-09T13:08:04.842Z,4.78
2024-04-09T13:10:32.897Z,3.33
2024-04-09T13:12:59.521Z,1.70
2024-04-09T13:17:57.035Z,3.10
2024-04-09T13:20:23.731Z,5.13
2024-04-09T13:22:50.575Z,2.65
2024-04-09T13:25:17.262Z,2.00
2024-04-09T13:27:43.866Z,5.85
2024-04-09T13:30:10.699Z,2.17
2024-04-09T13:32:37.586Z,6.22
2024-04-09T13:35:04.633Z,2.55
2024-04-09T13:37:31.378Z,1.75
2024-04-09T13:39:58.009Z,2.47
2024-04-09T13:42:24.579Z,3.50
2024-04-09T13:44:51.200Z,1.33
2024-04-09T13:47:17.880Z,1.38
2024-04-09T13:49:48.762Z,2.30
2024-04-09T13:52:15.458Z,3.92
2024-04-09T13:54:42.058Z,3.28
2024-04-09T13:57:08.748Z,3.83
2024-04-09T13:59:35.463Z,2.50
2024-04-09T14:02:02.100Z,3.53
2024-04-09T14:04:31.814Z,1.58
2024-04-09T14:06:58.476Z,4.32
2024-04-09T14:09:25.306Z,5.95
2024-04-09T14:11:52.158Z,2.95
2024-04-09T14:14:18.892Z,3.80
2024-04-09T14:16:45.882Z,5.28
2024-04-09T14:19:14.638Z,2.67
2024-04-09T14:21:43.931Z,4.78
2024-04-09T14:24:11.223Z,2.38
2024-04-09T14:26:37.993Z,3.72
2024-04-09T14:29:04.910Z,2.15
2024-04-09T14:31:31.640Z,2.45
2024-04-09T14:33:58.323Z,3.22
2024-04-09T14:36:25.001Z,3.13
2024-04-09T14:38:51.941Z,0.73
2024-04-09T14:41:21.074Z,2.75
2024-04-09T14:43:47.917Z,3.72
2024-04-09T14:46:15.446Z,3.55
2024-04-09T14:48:42.921Z,2.70
2024-04-09T14:51:09.853Z,3.63
2024-04-09T14:53:36.631Z,1.40
2024-04-09T14:56:03.752Z,2.80
2024-04-09T14:58:30.685Z,4.22
2024-04-09T15:00:57.485Z,4.88
2024-04-09T15:03:24.244Z,2.53
2024-04-09T15:05:54.617Z,2.45
2024-04-09T15:08:22.121Z,2.25
2024-04-09T15:11:02.085Z,2.30
2024-04-09T15:13:28.784Z,2.28
2024-04-09T15:15:55.733Z,1.52
2024-04-09T15:18:23.215Z,3.58
2024-04-09T15:20:50.027Z,3.40
2024-04-09T15:23:16.704Z,4.47
2024-04-09T15:25:47.028Z,3.90
2024-04-09T15:28:13.812Z,3.30
2024-04-09T15:30:41.590Z,7.57
2024-04-09T15:33:08.412Z,6.78
2024-04-09T15:35:35.265Z,7.60
2024-04-09T15:38:02.315Z,3.25
2024-04-09T15:40:29.106Z,5.75
2024-04-09T15:42:56.636Z,6.40
2024-04-09T15:45:23.255Z,3.15
2024-04-09T15:47:50.441Z,7.20
2024-04-09T15:50:17.474Z,6.95
2024-04-09T15:52:46.010Z,2.70
2024-04-09T15:55:15.666Z,7.03
2024-04-09T15:57:43.900Z,3.28
2024-04-09T16:00:13.538Z,5.13
2024-04-09T16:02:40.395Z,5.95
2024-04-09T16:05:09.186Z,6.97
2024-04-09T16:07:36.296Z,4.78
2024-04-09T16:10:03.024Z,5.03
2024-04-09T16:12:30.234Z,3.33
2024-04-09T16:14:58.342Z,3.03
2024-04-09T16:17:26.540Z,4.93
2024-04-09T16:19:53.351Z,7.18
2024-04-09T16:22:20.077Z,10.77
2024-04-09T16:24:47.476Z,6.88
2024-04-09T16:27:14.042Z,8.55
2024-04-09T16:29:41.027Z,7.05
2024-04-09T16:32:07.721Z,7.60
2024-04-09T16:34:36.673Z,7.13
2024-04-09T16:37:03.778Z,7.65
2024-04-09T16:39:30.464Z,9.93
2024-04-09T16:41:57.058Z,6.72
2024-04-09T16:44:23.776Z,7.38
2024-04-09T16:46:50.470Z,6.05
2024-04-09T16:49:17.265Z,8.35
2024-04-09T16:51:44.406Z,6.60
2024-04-09T16:54:11.162Z,6.20
2024-04-09T16:56:38.197Z,8.45
2024-04-09T16:59:05.154Z,5.30
2024-04-09T17:01:31.888Z,9.23
2024-04-09T17:03:58.545Z,6.78
2024-04-09T17:06:25.265Z,6.65
2024-04-09T17:08:51.943Z,9.20
2024-04-09T17:11:19.539Z,9.73
2024-04-09T17:13:48.001Z,10.15
2024-04-09T17:16:15.338Z,10.73
2024-04-09T17:18:42.293Z,9.27
2024-04-09T17:21:11.421Z,9.05
2024-04-09T17:23:39.138Z,8.77
2024-04-09T17:26:06.425Z,15.05
2024-04-09T17:28:33.190Z,8.35
2024-04-09T17:31:00.042Z,13.73
2024-04-09T17:33:30.016Z,10.85
2024-04-09T17:35:56.726Z,10.65
2024-04-09T17:38:23.440Z,8.60
2024-04-09T17:40:50.158Z,6.68
2024-04-09T17:43:16.899Z,11.15
2024-04-09T17:45:45.592Z,12.02
2024-04-09T17:48:12.539Z,10.30
2024-04-09T17:50:39.384Z,7.50
2024-04-09T17:53:06.098Z,11.80
2024-04-09T17:55:32.746Z,12.10
2024-04-09T17:58:00.254Z,8.82
2024-04-09T18:00:27.889Z,17.25
2024-04-09T18:02:54.627Z,14.35
2024-04-09T18:05:21.580Z,12.05
2024-04-09T18:07:48.489Z,9.73
2024-04-09T18:10:16.680Z,9.30
2024-04-09T18:12:43.630Z,11.02
2024-04-09T18:15:10.290Z,8.20
2024-04-09T18:17:37.181Z,12.70
2024-04-09T18:20:05.208Z,9.10
2024-04-09T18:22:31.943Z,8.43
2024-04-09T18:24:58.638Z,11.48
2024-04-09T18:27:25.508Z,11.95
2024-04-09T18:29:52.646Z,10.20
2024-04-09T18:32:19.442Z,13.20
2024-04-09T18:34:46.261Z,13.80
2024-04-09T18:37:12.884Z,10.98
2024-04-09T18:39:39.474Z,9.73
2024-04-09T18:42:06.547Z,12.02
2024-04-09T18:44:33.420Z,14.15
2024-04-09T18:47:00.211Z,13.18
2024-04-09T18:49:26.856Z,13.45
2024-04-09T18:51:55.215Z,14.05
2024-04-09T18:54:21.923Z,12.27
2024-04-09T18:56:48.567Z,11.02
2024-04-09T18:59:15.218Z,13.02
2024-04-09T19:01:41.849Z,12.02
2024-04-09T19:04:10.439Z,11.05
2024-04-09T19:06:37.098Z,12.23
2024-04-09T19:09:05.534Z,12.45
2024-04-09T19:11:32.400Z,19.25
2024-04-09T19:14:00.519Z,15.18
2024-04-09T19:16:27.337Z,16.13
2024-04-09T19:18:56.657Z,15.13
2024-04-09T19:21:31.582Z,14.05
2024-04-09T19:23:58.465Z,13.80
2024-04-09T19:26:25.168Z,9.27
2024-04-09T19:28:52.608Z,15.38
2024-04-09T19:31:22.221Z,14.40
2024-04-09T19:33:49.085Z,13.38
2024-04-09T19:36:19.115Z,15.13
2024-04-09T19:38:51.597Z,13.65
2024-04-09T19:41:18.501Z,14.07
2024-04-09T19:43:46.560Z,19.80
2024-04-09T19:46:13.553Z,14.90
2024-04-09T19:48:43.162Z,15.98
2024-04-09T19:51:09.803Z,10.48
2024-04-09T19:53:49.023Z,11.32
2024-04-09T19:56:20.374Z,14.00
2024-04-09T19:58:50.442Z,18.10
2024-04-09T20:01:17.546Z,19.58
2024-04-09T20:03:45.576Z,17.58
2024-04-09T20:06:14.500Z,24.98
2024-04-09T20:08:41.344Z,17.55
2024-04-09T20:11:08.173Z,20.05
2024-04-09T20:13:34.934Z,13.50
2024-04-09T20:16:01.736Z,13.98
2024-04-09T20:18:31.714Z,15.15
2024-04-09T20:20:58.966Z,11.82
2024-04-09T20:23:25.925Z,17.73
2024-04-09T20:25:59.549Z,15.45
2024-04-09T20:30:54.086Z,11.20
2024-04-09T20:33:23.428Z,13.95
2024-04-09T20:35:51.429Z,14.32
2024-04-09T20:38:20.953Z,11.68
2024-04-09T20:40:57.509Z,21.42
2024-04-09T20:43:27.102Z,16.88
2024-04-09T20:45:53.761Z,18.90
2024-04-09T20:48:20.806Z,17.73
2024-04-09T20:50:48.038Z,18.30
2024-04-09T20:53:14.714Z,19.10
2024-04-09T20:55:41.367Z,17.77
2024-04-09T20:58:08.072Z,12.55
2024-04-09T21:00:34.729Z,18.30
2024-04-09T21:03:02.060Z,19.40
2024-04-09T21:05:28.994Z,16.48
2024-04-09T21:07:55.708Z,26.10
2024-04-09T21:10:23.978Z,22.52
2024-04-09T21:12:50.573Z,18.90
2024-04-09T21:15:17.267Z,21.02
2024-04-09T21:17:44.345Z,20.63
2024-04-09T21:20:11.125Z,23.75
2024-04-09T21:22:37.822Z,20.45
2024-04-09T21:25:04.842Z,20.88
2024-04-09T21:27:31.429Z,19.38
2024-04-09T21:29:58.151Z,20.67
2024-04-09T21:32:24.905Z,28.35
2024-04-09T21:34:56.455Z,20.20
2024-04-09T21:37:23.642Z,23.10
2024-04-09T21:39:50.335Z,21.27
2024-04-09T21:42:16.983Z,15.77
2024-04-09T21:44:43.578Z,23.70
2024-04-09T21:47:10.341Z,23.52
2024-04-09T21:49:37.550Z,16.92
2024-04-09T21:52:04.228Z,15.63
2024-04-09T21:54:31.094Z,24.00
2024-04-09T21:56:57.929Z,17.65
2024-04-09T21:59:24.619Z,23.08
2024-04-09T22:01:51.371Z,18.23
2024-04-09T22:04:18.154Z,16.92
2024-04-09T22:06:44.833Z,21.27
2024-04-09T22:09:12.152Z,19.20
2024-04-09T22:11:38.986Z,19.80
2024-04-09T22:14:05.697Z,15.85
2024-04-09T22:16:32.755Z,17.88
2024-04-09T22:18:59.689Z,16.70
2024-04-09T22:21:28.224Z,19.65
2024-04-09T22:23:55.240Z,15.07
2024-04-09T22:26:23.064Z,24.52
2024-04-09T22:28:49.772Z,26.23
2024-04-09T22:31:16.385Z,18.25
2024-04-09T22:33:43.228Z,19.15
2024-04-09T22:36:10.462Z,20.10
2024-04-09T22:38:37.201Z,17.92
2024-04-09T22:41:04.681Z,23.45
2024-04-09T22:43:31.456Z,26.27
2024-04-09T22:46:01.416Z,17.20
2024-04-09T22:48:30.003Z,23.27
2024-04-09T22:50:57.974Z,19.98
2024-04-09T22:53:24.736Z,16.75
2024-04-09T22:55:55.022Z,17.83
2024-04-09T22:58:21.753Z,25.50
2024-04-09T23:00:48.478Z,23.17
2024-04-09T23:03:15.169Z,17.17
2024-04-09T23:05:41.853Z,18.90
2024-04-09T23:08:08.569Z,19.52
2024-04-09T23:10:35.208Z,20.50
2024-04-09T23:13:02.673Z,22.52
2024-04-09T23:15:29.425Z,24.65
2024-04-09T23:17:56.225Z,20.13
2024-04-09T23:20:23.024Z,23.67
2024-04-09T23:22:49.682Z,23.08
2024-04-09T23:25:16.820Z,17.55
2024-04-09T23:27:43.500Z,18.65
2024-04-09T23:30:10.917Z,21.83
2024-04-09T23:32:37.651Z,22.27
2024-04-09T23:35:04.503Z,21.05
2024-04-09T23:37:31.150Z,27.98
2024-04-09T23:39:57.750Z,19.33
2024-04-09T23:42:24.388Z,19.75
2024-04-09T23:44:50.992Z,27.98
2024-04-09T23:47:17.684Z,21.58
2024-04-09T23:49:44.342Z,23.45
2024-04-09T23:52:10.916Z,23.05
2024-04-09T23:54:37.532Z,20.27
2024-04-09T23:57:04.298Z,17.95
2024-04-09T23:59:31.784Z,22.40
